Time;durP1;ratioP1;P1;durP2;ratioP2;P2;SDS_P1;SDS_P2;PMS_P1;PMS_P2;Temp;Humidity;BMP_temperature;BMP_pressure;BME280_temperature;BME280_humidity;BME280_pressure;Samples;Min_cycle;Max_cycle;Signal;HPM_P1;HPM_P2
2023/09/27 00:01:15;;;;;;;23.45;21.05;;;;;;;11.77;100.00;101754.28;5088489;28;20036;-76
2023/09/27 00:03:42;;;;;;;23.35;20.70;;;;;;;11.72;100.00;101745.91;5086367;28;20474;-76
2023/09/27 00:06:07;;;;;;;24.08;21.52;;;;;;;11.71;100.00;101745.06;5086623;28;20058;-76
2023/09/27 00:08:33;;;;;;;24.80;21.65;;;;;;;11.70;100.00;101747.94;5086057;28;20110;-75
2023/09/27 00:10:58;;;;;;;25.25;22.52;;;;;;;11.72;100.00;101748.59;5102664;28;20088;-76
2023/09/27 00:13:25;;;;;;;24.48;21.80;;;;;;;11.71;100.00;101755.00;5106880;28;20020;-77
2023/09/27 00:15:50;;;;;;;26.17;22.85;;;;;;;11.70;100.00;101766.81;5092373;28;20043;-76
2023/09/27 00:18:16;;;;;;;24.40;20.95;;;;;;;11.66;100.00;101767.19;5089445;28;20376;-77
2023/09/27 00:20:41;;;;;;;23.70;21.20;;;;;;;11.61;100.00;101766.91;5089651;28;20465;-77
2023/09/27 00:23:08;;;;;;;22.20;19.98;;;;;;;11.59;100.00;101777.03;5086181;28;21918;-77
2023/09/27 00:25:33;;;;;;;23.52;20.58;;;;;;;11.64;100.00;101779.19;5088261;28;20155;-77
2023/09/27 00:27:59;;;;;;;24.85;22.20;;;;;;;11.63;100.00;101791.84;5088656;28;20055;-77
2023/09/27 00:30:27;;;;;;;23.75;21.17;;;;;;;11.60;100.00;101789.50;5066472;28;20090;-77
2023/09/27 00:32:53;;;;;;;22.02;19.80;;;;;;;11.56;100.00;101790.03;5088736;28;20016;-77
2023/09/27 00:35:19;;;;;;;24.90;22.23;;;;;;;11.53;100.00;101796.63;5088394;28;20034;-76
2023/09/27 00:37:48;;;;;;;23.80;21.30;;;;;;;11.51;100.00;101799.50;5088250;28;20024;-77
2023/09/27 00:40:15;;;;;;;25.58;22.80;;;;;;;11.51;100.00;101801.34;5087722;28;20031;-77
2023/09/27 00:42:40;;;;;;;22.35;19.73;;;;;;;11.49;100.00;101804.22;5089638;28;20116;-77
2023/09/27 00:45:07;;;;;;;22.15;19.67;;;;;;;11.46;100.00;101798.38;5085742;28;20361;-77
2023/09/27 00:47:32;;;;;;;22.95;20.65;;;;;;;11.47;100.00;101813.53;5088831;28;20537;-77
2023/09/27 00:49:57;;;;;;;23.10;20.50;;;;;;;11.48;100.00;101823.28;5088593;28;20028;-77
2023/09/27 00:52:23;;;;;;;25.00;22.15;;;;;;;11.57;100.00;101829.44;5068799;28;20023;-77
2023/09/27 00:54:52;;;;;;;26.15;23.35;;;;;;;11.64;100.00;101823.19;5089618;28;20379;-77
2023/09/27 00:57:17;;;;;;;24.10;21.58;;;;;;;11.66;100.00;101818.41;5072052;28;20032;-77
2023/09/27 00:59:44;;;;;;;23.90;21.27;;;;;;;11.66;100.00;101818.41;5088736;28;20379;-77
2023/09/27 01:02:09;;;;;;;26.02;22.90;;;;;;;11.70;100.00;101813.53;5071792;28;20040;-77
2023/09/27 01:04:35;;;;;;;24.00;21.42;;;;;;;11.75;100.00;101821.06;5089003;28;20032;-77
2023/09/27 01:07:01;;;;;;;24.50;21.10;;;;;;;11.74;100.00;101817.50;5070807;28;20028;-77
2023/09/27 01:09:28;;;;;;;26.92;22.13;;;;;;;11.73;100.00;101821.25;5065346;28;20040;-77
2023/09/27 01:11:54;;;;;;;23.30;19.48;;;;;;;11.71;100.00;101820.59;5069456;28;20107;-75
2023/09/27 01:14:19;;;;;;;23.52;21.02;;;;;;;11.69;100.00;101817.25;5070856;28;20092;-75
2023/09/27 01:16:45;;;;;;;24.63;21.85;;;;;;;11.69;100.00;101809.16;5083790;28;20020;-75
2023/09/27 01:19:10;;;;;;;25.23;22.42;;;;;;;11.69;100.00;101811.84;5088303;28;20036;-75
2023/09/27 01:21:35;;;;;;;24.42;21.00;;;;;;;11.72;100.00;101810.63;5084275;28;20032;-75
2023/09/27 01:24:01;;;;;;;23.33;20.77;;;;;;;11.72;100.00;101810.63;5080429;28;20027;-75
2023/09/27 01:26:32;;;;;;;27.20;22.20;;;;;;;11.75;100.00;101810.28;5088883;28;20028;-75
2023/09/27 01:28:58;;;;;;;24.70;21.52;;;;;;;11.76;100.00;101806.56;5087783;28;20028;-76
2023/09/27 01:31:25;;;;;;;24.48;21.88;;;;;;;11.76;100.00;101798.47;5089102;28;20403;-76
2023/09/27 01:33:50;;;;;;;24.67;20.80;;;;;;;11.75;100.00;101808.41;5067866;28;20040;-76
2023/09/27 01:36:15;;;;;;;23.35;20.83;;;;;;;11.74;100.00;101808.59;5087078;28;20027;-76
2023/09/27 01:38:41;;;;;;;22.17;19.75;;;;;;;11.70;100.00;101801.88;5085414;28;20036;-76
2023/09/27 01:41:06;;;;;;;23.60;21.10;;;;;;;11.65;100.00;101794.34;5088317;28;20479;-76
2023/09/27 01:43:32;;;;;;;24.02;20.30;;;;;;;11.63;100.00;101790.97;5054875;28;20100;-76
2023/09/27 01:45:57;;;;;;;22.52;20.23;;;;;;;11.61;100.00;101795.72;5091342;28;20024;-76
2023/09/27 01:48:23;;;;;;;24.02;21.42;;;;;;;11.55;100.00;101777.56;5090849;28;20032;-76
2023/09/27 01:50:48;;;;;;;23.08;20.58;;;;;;;11.53;100.00;101778.59;5090437;28;20046;-76
2023/09/27 01:53:14;;;;;;;25.40;22.48;;;;;;;11.52;100.00;101773.38;5090142;28;20104;-76
2023/09/27 01:55:39;;;;;;;22.95;20.48;;;;;;;11.52;100.00;101778.75;5088549;28;20051;-76
2023/09/27 01:58:06;;;;;;;24.08;21.10;;;;;;;11.51;100.00;101787.88;5088561;28;20387;-76
2023/09/27 02:00:31;;;;;;;23.08;20.42;;;;;;;11.48;100.00;101777.44;5091342;28;20032;-77
2023/09/27 02:03:00;;;;;;;23.88;21.30;;;;;;;11.42;100.00;101783.56;5091657;28;20032;-77
2023/09/27 02:05:26;;;;;;;22.00;19.65;;;;;;;11.40;100.00;101782.91;5089462;28;20027;-77
2023/09/27 02:07:52;;;;;;;25.40;20.90;;;;;;;11.39;100.00;101784.75;5091219;28;20032;-77
2023/09/27 02:10:19;;;;;;;23.15;20.42;;;;;;;11.34;100.00;101779.91;5073454;28;20455;-77
2023/09/27 02:12:45;;;;;;;22.42;20.02;;;;;;;11.31;100.00;101780.25;5085540;28;20028;-77
2023/09/27 02:15:11;;;;;;;24.33;20.70;;;;;;;11.28;100.00;101775.25;5087732;28;20697;-77
2023/09/27 02:17:37;;;;;;;22.30;19.88;;;;;;;11.28;100.00;101771.69;5089456;28;20039;-75
2023/09/27 02:20:07;;;;;;;26.88;21.23;;;;;;;11.26;100.00;101766.50;5089855;28;20028;-77
2023/09/27 02:22:35;;;;;;;24.17;21.10;;;;;;;11.29;100.00;101757.19;5089193;28;20077;-76
2023/09/27 02:25:01;;;;;;;26.95;22.48;;;;;;;11.34;100.00;101746.72;5067904;28;20028;-77
2023/09/27 02:27:26;;;;;;;27.27;20.85;;;;;;;11.35;100.00;101738.44;5086240;28;20047;-77
2023/09/27 02:29:52;;;;;;;25.98;20.27;;;;;;;11.35;100.00;101732.22;5086897;28;20085;-76
2023/09/27 02:32:21;;;;;;;25.15;21.75;;;;;;;11.39;100.00;101741.59;5089184;28;20353;-76
2023/09/27 02:34:47;;;;;;;26.98;22.15;;;;;;;11.42;100.00;101740.44;5087638;28;20051;-76
2023/09/27 02:37:15;;;;;;;27.30;21.15;;;;;;;11.43;100.00;101740.22;5087709;28;20089;-76
2023/09/27 02:39:42;;;;;;;25.80;20.77;;;;;;;11.50;100.00;101748.44;5089560;28;20033;-75
2023/09/27 02:42:07;;;;;;;23.15;19.95;;;;;;;11.45;100.00;101750.84;5091038;28;20035;-75
2023/09/27 02:44:32;;;;;;;23.80;20.42;;;;;;;11.39;100.00;101752.38;5088921;28;20367;-75
2023/09/27 02:46:58;;;;;;;24.90;20.70;;;;;;;11.32;100.00;101749.59;5088712;28;20119;-76
2023/09/27 02:49:24;;;;;;;24.42;19.98;;;;;;;11.29;100.00;101752.66;5085074;28;20024;-75
2023/09/27 02:51:51;;;;;;;25.10;20.13;;;;;;;11.26;100.00;101758.41;5088972;28;20024;-75
2023/09/27 02:54:17;;;;;;;23.50;18.48;;;;;;;11.22;100.00;101757.06;5090174;28;20039;-75
2023/09/27 02:56:45;;;;;;;22.23;18.92;;;;;;;11.24;100.00;101771.22;5089957;28;20044;-76
2023/09/27 02:59:11;;;;;;;22.48;18.08;;;;;;;11.20;100.00;101769.88;5072429;28;20028;-76
2023/09/27 03:01:40;;;;;;;27.17;21.75;;;;;;;11.18;100.00;101763.84;5090859;28;20081;-77
2023/09/27 03:04:06;;;;;;;22.25;18.67;;;;;;;11.13;100.00;101772.47;5091589;28;20050;-76
2023/09/27 03:06:37;;;;;;;23.58;18.42;;;;;;;11.10;100.00;101769.28;5089942;28;20063;-76
2023/09/27 03:09:04;;;;;;;21.98;18.80;;;;;;;11.07;100.00;101771.31;5090854;28;20020;-75
2023/09/27 03:11:29;;;;;;;25.83;20.83;;;;;;;11.03;100.00;101770.00;5089936;28;20031;-75
2023/09/27 03:13:55;;;;;;;25.48;21.35;;;;;;;10.99;100.00;101768.66;5091578;28;20031;-75
2023/09/27 03:16:20;;;;;;;29.35;22.58;;;;;;;10.97;100.00;101781.47;5089765;28;20104;-75
2023/09/27 03:18:46;;;;;;;25.63;19.45;;;;;;;10.92;100.00;101786.56;5090987;28;20543;-75
2023/09/27 03:21:12;;;;;;;25.45;20.05;;;;;;;10.89;100.00;101773.44;5088932;28;20032;-75
2023/09/27 03:23:37;;;;;;;25.58;20.35;;;;;;;10.87;100.00;101775.47;5089678;28;20028;-75
2023/09/27 03:26:04;;;;;;;25.20;21.10;;;;;;;10.84;100.00;101773.97;5089321;28;20028;-75
2023/09/27 03:28:29;;;;;;;25.23;20.10;;;;;;;10.93;100.00;101785.56;5090106;28;20081;-75
2023/09/27 03:30:55;;;;;;;27.63;21.98;;;;;;;10.96;100.00;101790.56;5089623;28;20034;-74
2023/09/27 03:33:21;;;;;;;27.50;21.88;;;;;;;10.90;100.00;101781.34;5090436;28;20107;-77
2023/09/27 03:35:46;;;;;;;29.05;22.73;;;;;;;10.91;100.00;101784.88;5088295;28;20032;-75
2023/09/27 03:38:12;;;;;;;31.45;23.05;;;;;;;10.89;100.00;101789.59;5089298;28;20030;-75
2023/09/27 03:40:42;;;;;;;27.75;21.90;;;;;;;10.82;100.00;101785.94;5088106;28;20024;-75
2023/09/27 03:43:08;;;;;;;25.83;19.95;;;;;;;10.79;100.00;101783.56;5089482;28;20396;-74
2023/09/27 03:45:35;;;;;;;28.40;23.05;;;;;;;10.80;100.00;101785.25;5089878;28;20020;-75
2023/09/27 03:48:01;;;;;;;26.33;20.85;;;;;;;10.80;100.00;101779.88;5091506;28;20035;-75
2023/09/27 03:50:26;;;;;;;30.25;22.10;;;;;;;10.82;100.00;101775.16;5090071;28;20609;-74
2023/09/27 03:52:55;;;;;;;25.02;21.05;;;;;;;10.85;100.00;101782.88;5090888;28;20024;-74
2023/09/27 03:55:21;;;;;;;25.25;20.63;;;;;;;10.82;100.00;101784.09;5091148;28;20648;-75
2023/09/27 03:57:46;;;;;;;31.23;23.15;;;;;;;10.84;100.00;101797.38;5093355;28;20073;-76
2023/09/27 04:00:14;;;;;;;32.85;23.92;;;;;;;10.82;100.00;101797.56;5091386;28;20035;-75
2023/09/27 04:02:40;;;;;;;31.27;24.05;;;;;;;10.85;100.00;101799.03;5101890;28;20032;-74
2023/09/27 04:05:09;;;;;;;33.42;24.15;;;;;;;10.81;100.00;101778.84;5092058;28;20031;-75
2023/09/27 04:07:34;;;;;;;29.25;23.30;;;;;;;10.81;100.00;101778.84;5091167;28;20081;-75
2023/09/27 04:10:04;;;;;;;33.85;24.30;;;;;;;10.83;100.00;101782.22;5091352;28;20031;-86
2023/09/27 04:12:31;;;;;;;37.60;25.92;;;;;;;10.89;100.00;101773.44;5085850;28;20024;-78
2023/09/27 04:14:58;;;;;;;30.58;22.77;;;;;;;10.90;100.00;101772.44;5066134;28;20024;-80
2023/09/27 04:17:29;;;;;;;36.88;25.15;;;;;;;10.92;100.00;101778.47;5090285;28;20088;-77
2023/09/27 04:19:58;;;;;;;36.78;25.33;;;;;;;11.01;100.00;101784.66;5090758;28;20024;-81
2023/09/27 04:22:23;;;;;;;34.92;23.95;;;;;;;10.97;100.00;101780.63;5087331;28;20115;-76
2023/09/27 04:24:48;;;;;;;30.23;22.33;;;;;;;10.97;100.00;101786.84;5090602;28;20028;-76
2023/09/27 04:27:14;;;;;;;32.42;23.25;;;;;;;11.01;100.00;101792.75;5090926;28;20028;-76
2023/09/27 04:29:39;;;;;;;28.67;22.10;;;;;;;11.15;100.00;101794.69;5101532;28;20034;-76
2023/09/27 04:32:06;;;;;;;33.10;23.90;;;;;;;11.25;100.00;101789.06;5103126;28;20028;-77
2023/09/27 04:34:31;;;;;;;28.05;21.88;;;;;;;11.27;100.00;101787.03;5103854;28;20030;-77
2023/09/27 04:36:57;;;;;;;30.27;22.58;;;;;;;11.26;100.00;101811.47;5095225;28;20044;-77
2023/09/27 04:39:27;;;;;;;29.23;20.48;;;;;;;11.23;100.00;101809.97;5092656;28;20132;-77
2023/09/27 04:41:58;;;;;;;29.85;22.38;;;;;;;11.25;100.00;101815.16;5091474;28;20024;-77
2023/09/27 04:44:26;;;;;;;27.55;22.10;;;;;;;11.32;100.00;101811.59;5089022;28;20040;-77
2023/09/27 04:46:56;;;;;;;27.92;20.92;;;;;;;11.32;100.00;101803.50;5090943;28;20024;-78
2023/09/27 04:49:25;;;;;;;30.40;21.15;;;;;;;11.25;100.00;101810.63;5089843;28;20035;-77
2023/09/27 04:51:53;;;;;;;29.08;21.40;;;;;;;11.20;100.00;101802.22;5090121;28;20084;-77
2023/09/27 04:54:19;;;;;;;31.42;22.65;;;;;;;11.12;100.00;101795.03;5090642;28;20028;-77
2023/09/27 04:56:44;;;;;;;30.38;22.10;;;;;;;11.10;100.00;101796.25;5089648;28;20034;-77
2023/09/27 04:59:10;;;;;;;30.20;22.45;;;;;;;11.10;100.00;101790.84;5090630;28;20024;-78
2023/09/27 05:01:35;;;;;;;29.98;21.65;;;;;;;11.09;100.00;101799.94;5092080;28;20468;-77
2023/09/27 05:04:03;;;;;;;29.67;22.00;;;;;;;11.03;100.00;101796.13;5090491;28;20392;-78
2023/09/27 05:06:31;;;;;;;27.02;19.73;;;;;;;11.02;100.00;101810.59;5089559;28;20036;-77
2023/09/27 05:08:56;;;;;;;31.40;22.10;;;;;;;11.02;100.00;101807.91;5097580;28;20056;-76
2023/09/27 05:11:22;;;;;;;30.55;22.35;;;;;;;10.97;100.00;101816.50;5401181;22;20160;-77
2023/09/27 05:13:47;;;;;;;27.80;21.17;;;;;;;10.91;100.00;101818.03;5048080;28;20040;-77
2023/09/27 05:16:25;;;;;;;27.95;21.08;;;;;;;10.87;100.00;101829.34;5050377;28;20031;-77
2023/09/27 05:18:50;;;;;;;27.88;20.23;;;;;;;10.81;100.00;101830.03;5042476;28;20476;-77
2023/09/27 05:21:19;;;;;;;31.75;21.65;;;;;;;10.80;100.00;101839.13;5046666;28;20028;-77
2023/09/27 05:23:44;;;;;;;29.15;21.08;;;;;;;10.79;100.00;101841.00;5057288;28;20077;-78
2023/09/27 05:26:11;;;;;;;32.33;22.63;;;;;;;10.77;100.00;101841.16;5053263;28;20401;-77
2023/09/27 05:28:37;;;;;;;33.65;22.27;;;;;;;10.78;100.00;101858.16;5053832;28;20120;-77
2023/09/27 05:31:14;;;;;;;32.55;21.70;;;;;;;10.76;100.00;101861.03;5054407;28;20024;-77
2023/09/27 05:33:40;;;;;;;31.02;21.40;;;;;;;10.76;100.00;101871.81;5054803;28;20024;-78
2023/09/27 05:36:05;;;;;;;31.75;22.17;;;;;;;10.77;100.00;101864.56;5052571;28;20040;-78
2023/09/27 05:38:32;;;;;;;36.65;23.77;;;;;;;10.76;100.00;101854.81;5056705;28;20437;-78
2023/09/27 05:40:58;;;;;;;31.20;21.85;;;;;;;10.80;100.00;101856.13;5057349;28;20029;-78
2023/09/27 05:43:23;;;;;;;34.90;23.35;;;;;;;10.84;100.00;101856.63;5055782;28;20094;-78
2023/09/27 05:45:52;;;;;;;37.17;24.35;;;;;;;10.87;100.00;101851.72;5060874;28;20021;-78
2023/09/27 05:48:17;;;;;;;30.88;22.83;;;;;;;10.91;100.00;101853.06;5046045;28;20075;-78
2023/09/27 05:50:46;;;;;;;34.90;22.45;;;;;;;10.96;100.00;101844.44;5053374;28;20021;-78
2023/09/27 05:53:12;;;;;;;44.47;25.30;;;;;;;11.02;100.00;101843.75;5052810;28;20025;-78
2023/09/27 05:55:38;;;;;;;37.65;24.83;;;;;;;11.07;100.00;101830.59;5053445;28;20036;-78
2023/09/27 05:58:04;;;;;;;33.42;23.98;;;;;;;11.16;100.00;101817.06;5052492;28;20040;-78
2023/09/27 06:00:37;;;;;;;39.72;24.77;;;;;;;11.26;100.00;101812.31;5051980;28;20040;-78
2023/09/27 06:03:07;;;;;;;43.25;27.73;;;;;;;11.53;100.00;101805.56;5054233;28;20044;-78
2023/09/27 06:05:32;;;;;;;33.35;23.73;;;;;;;11.76;100.00;101817.34;5053004;28;20314;-78
2023/09/27 06:07:59;;;;;;;32.97;23.23;;;;;;;11.98;100.00;101815.63;5050777;28;20062;-79
2023/09/27 06:10:24;;;;;;;35.38;24.73;;;;;;;12.27;100.00;101797.84;5051777;28;20040;-78
2023/09/27 06:12:49;;;;;;;31.77;24.75;;;;;;;12.92;100.00;101794.53;5051914;28;20052;-77
2023/09/27 06:15:16;;;;;;;20.23;18.08;;;;;;;13.56;100.00;101811.94;5051976;28;20029;-78
2023/09/27 06:17:42;;;;;;;13.02;11.63;;;;;;;14.24;100.00;101836.63;5050817;28;20514;-77
2023/09/27 06:20:12;;;;;;;14.88;13.27;;;;;;;14.84;100.00;101835.34;5052337;28;20087;-77
2023/09/27 06:22:40;;;;;;;14.35;12.27;;;;;;;15.97;95.89;101827.72;5051635;28;20032;-78
2023/09/27 06:25:06;;;;;;;16.45;11.73;;;;;;;16.55;90.59;101829.72;5045534;28;20052;-77
2023/09/27 06:27:34;;;;;;;15.52;11.93;;;;;;;17.17;87.34;101834.78;5050287;28;20136;-78
2023/09/27 06:30:01;;;;;;;12.95;11.60;;;;;;;17.30;86.32;101839.28;5051528;28;20021;-78
2023/09/27 06:32:27;;;;;;;12.85;11.65;;;;;;;17.87;80.57;101835.78;5052870;28;20024;-78
2023/09/27 06:34:53;;;;;;;12.07;10.70;;;;;;;19.02;76.60;101830.06;5049222;28;20472;-78
2023/09/27 06:37:18;;;;;;;12.00;10.13;;;;;;;19.72;72.96;101823.16;5051767;28;20035;-78
2023/09/27 06:39:53;;;;;;;12.98;11.57;;;;;;;19.57;70.68;101828.25;5052601;28;20032;-79
2023/09/27 06:42:19;;;;;;;13.07;11.55;;;;;;;19.65;72.74;101833.34;5050400;28;20095;-78
2023/09/27 06:44:44;;;;;;;12.73;10.77;;;;;;;20.53;67.30;101832.69;5051963;28;20037;-79
2023/09/27 06:47:10;;;;;;;10.63;9.52;;;;;;;20.30;67.71;101823.44;5051359;28;20044;-79
2023/09/27 06:49:35;;;;;;;13.13;11.82;;;;;;;18.77;72.97;101833.66;5051262;28;20472;-79
2023/09/27 06:52:03;;;;;;;13.85;12.55;;;;;;;17.25;80.10;101823.63;5052205;28;20037;-79
2023/09/27 06:54:29;;;;;;;13.88;12.55;;;;;;;16.54;84.88;101830.78;5051739;28;20039;-79
2023/09/27 06:56:54;;;;;;;15.85;12.48;;;;;;;16.44;86.29;101824.97;5050621;28;20029;-78
2023/09/27 06:59:20;;;;;;;13.60;12.30;;;;;;;16.19;87.17;101831.91;5051891;28;20037;-78
2023/09/27 07:01:45;;;;;;;13.27;11.98;;;;;;;15.99;90.15;101828.34;5052970;28;20405;-78
2023/09/27 07:04:11;;;;;;;14.18;11.20;;;;;;;16.15;88.95;101836.06;5050367;28;20380;-78
2023/09/27 07:06:36;;;;;;;14.07;12.35;;;;;;;15.94;90.36;101839.00;5050752;28;20029;-78
2023/09/27 07:09:03;;;;;;;13.32;11.60;;;;;;;16.27;89.99;101844.44;5051926;28;20051;-78
2023/09/27 07:11:29;;;;;;;11.90;10.70;;;;;;;16.79;87.60;101836.34;5049514;28;20416;-78
2023/09/27 07:13:55;;;;;;;12.32;11.00;;;;;;;17.01;84.85;101832.56;5051207;28;20025;-78
2023/09/27 07:16:29;;;;;;;13.35;11.95;;;;;;;16.81;85.81;101833.44;5050662;28;20029;-77
2023/09/27 07:18:55;;;;;;;13.40;12.00;;;;;;;16.66;87.25;101830.97;5050912;28;20032;-78
2023/09/27 07:21:21;;;;;;;14.15;12.00;;;;;;;16.87;87.35;101835.28;5050710;28;20029;-78
2023/09/27 07:23:47;;;;;;;14.65;11.85;;;;;;;17.63;84.46;101834.69;5052011;28;20025;-77
2023/09/27 07:26:13;;;;;;;15.27;11.68;;;;;;;18.83;78.59;101838.22;5048486;28;20437;-77
2023/09/27 07:28:40;;;;;;;11.98;10.60;;;;;;;20.20;71.90;101839.63;5045031;28;20040;-78
2023/09/27 07:31:06;;;;;;;13.80;10.50;;;;;;;21.52;67.51;101839.06;5051041;28;20025;-77
2023/09/27 07:33:31;;;;;;;10.20;9.18;;;;;;;23.51;59.45;101839.59;5050831;28;20017;-77
2023/09/27 07:35:58;;;;;;;10.57;8.68;;;;;;;24.72;54.17;101830.00;5049170;28;20017;-77
2023/09/27 07:38:23;;;;;;;8.73;7.68;;;;;;;25.86;50.11;101831.06;5049970;28;20244;-77
2023/09/27 07:40:49;;;;;;;9.07;7.25;;;;;;;26.66;47.53;101832.28;5049967;28;20489;-78
2023/09/27 07:43:15;;;;;;;11.57;8.30;;;;;;;24.88;51.13;101831.75;5048382;28;20029;-78
2023/09/27 07:45:44;;;;;;;10.68;8.98;;;;;;;23.65;54.42;101824.34;5049494;28;20406;-78
2023/09/27 07:48:12;;;;;;;10.95;9.18;;;;;;;22.59;58.83;101823.75;5051174;28;20100;-77
2023/09/27 07:50:38;;;;;;;10.77;9.68;;;;;;;22.13;60.77;101819.25;5051117;28;20032;-77
2023/09/27 07:53:06;;;;;;;9.70;8.60;;;;;;;21.87;62.74;101812.53;5050751;28;20021;-77
2023/09/27 07:55:51;;;;;;;10.90;9.02;;;;;;;22.38;61.62;101823.44;5049309;28;20030;-77
2023/09/27 07:58:16;;;;;;;12.20;9.38;;;;;;;22.66;60.22;101818.88;5050743;28;20116;-78
2023/09/27 08:00:44;;;;;;;9.55;8.55;;;;;;;23.30;58.21;101806.44;5050277;28;20104;-77
2023/09/27 08:03:10;;;;;;;14.00;9.88;;;;;;;22.95;59.07;101804.94;5049565;28;20115;-77
2023/09/27 08:05:42;;;;;;;11.57;10.38;;;;;;;21.41;63.49;101798.84;5049843;28;20040;-77
2023/09/27 08:08:11;;;;;;;9.73;8.73;;;;;;;21.98;61.84;101802.56;5050702;28;20040;-77
2023/09/27 08:10:43;;;;;;;13.82;10.38;;;;;;;20.98;66.30;101821.09;5043717;28;20036;-77
2023/09/27 08:13:10;;;;;;;12.70;10.25;;;;;;;20.65;66.50;101835.41;5049855;28;20043;-77
2023/09/27 08:15:35;;;;;;;14.50;11.25;;;;;;;19.80;70.06;101841.94;5043387;28;20104;-78
2023/09/27 08:18:02;;;;;;;14.43;12.10;;;;;;;19.19;73.67;101835.69;5051457;28;20126;-78
2023/09/27 08:20:27;;;;;;;17.10;11.63;;;;;;;19.04;74.91;101847.03;5049406;28;20112;-77
2023/09/27 08:22:53;;;;;;;14.70;12.30;;;;;;;18.91;75.88;101843.34;5051637;28;20025;-78
2023/09/27 08:25:19;;;;;;;13.13;11.73;;;;;;;18.65;77.79;101847.22;5048083;28;20033;-78
2023/09/27 08:27:44;;;;;;;13.30;11.90;;;;;;;18.62;76.43;101843.06;5041183;28;20029;-77
2023/09/27 08:30:11;;;;;;;14.68;12.20;;;;;;;18.54;76.53;101840.63;5051951;28;20055;-76
2023/09/27 08:32:38;;;;;;;12.75;11.13;;;;;;;18.83;76.34;101837.38;5057714;28;20043;-78
2023/09/27 08:35:05;;;;;;;14.13;12.15;;;;;;;19.28;73.21;101830.75;5050273;28;20276;-77
2023/09/27 08:37:30;;;;;;;14.07;12.65;;;;;;;19.72;73.16;101834.09;5050856;28;20134;-77
2023/09/27 08:39:56;;;;;;;12.23;10.52;;;;;;;20.65;69.15;101830.75;5050270;28;20508;-77
2023/09/27 08:42:22;;;;;;;15.13;10.77;;;;;;;21.08;66.08;101830.56;5048632;28;20029;-77
2023/09/27 08:44:47;;;;;;;13.52;10.45;;;;;;;21.22;64.83;101831.13;5049902;28;20580;-77
2023/09/27 08:47:14;;;;;;;13.02;11.63;;;;;;;21.06;64.61;101836.31;5054719;28;20021;-77
2023/09/27 08:49:44;;;;;;;12.30;10.90;;;;;;;21.99;62.58;101835.19;5050622;28;20526;-77
2023/09/27 08:52:09;;;;;;;12.63;11.32;;;;;;;21.78;61.80;101837.63;5039429;28;20366;-77
2023/09/27 08:54:34;;;;;;;16.77;10.25;;;;;;;22.87;58.88;101839.19;5049666;28;20044;-78
2023/09/27 08:57:00;;;;;;;16.52;11.48;;;;;;;22.46;59.87;101842.22;5048420;28;20051;-78
2023/09/27 08:59:25;;;;;;;13.23;11.00;;;;;;;22.81;58.81;101827.31;5022434;28;20021;-78
2023/09/27 09:01:52;;;;;;;15.85;11.65;;;;;;;23.12;58.66;101829.59;5051744;28;20538;-78
2023/09/27 09:04:18;;;;;;;16.05;10.73;;;;;;;23.65;56.85;101835.34;5049282;28;20032;-78
2023/09/27 09:06:44;;;;;;;13.18;10.98;;;;;;;24.20;54.42;101829.72;5053005;28;20366;-78
2023/09/27 09:09:12;;;;;;;12.45;9.73;;;;;;;25.08;52.52;101828.22;5033716;28;20060;-78
2023/09/27 09:11:43;;;;;;;12.75;11.38;;;;;;;25.27;50.91;101831.28;5047220;28;20107;-77
2023/09/27 09:14:10;;;;;;;13.70;10.82;;;;;;;25.45;50.55;101826.38;5030032;28;20049;-77
2023/09/27 09:16:47;;;;;;;13.45;10.48;;;;;;;25.97;48.93;101826.34;5049644;28;20048;-77
2023/09/27 09:19:25;;;;;;;11.77;10.35;;;;;;;26.59;47.92;101826.25;5048045;28;20619;-77
2023/09/27 09:22:09;;;;;;;13.20;11.32;;;;;;;25.45;49.79;101837.41;5049270;28;20484;-77
2023/09/27 09:24:42;;;;;;;11.05;9.95;;;;;;;25.98;49.91;101834.38;5048962;28;20029;-77
2023/09/27 09:27:08;;;;;;;14.02;10.52;;;;;;;27.27;45.49;101846.91;5048713;28;20028;-77
2023/09/27 09:29:45;;;;;;;11.32;9.45;;;;;;;28.04;42.72;101856.56;5048800;28;20036;-77
2023/09/27 09:32:10;;;;;;;12.25;10.95;;;;;;;26.29;47.97;101850.91;5048326;28;20037;-77
2023/09/27 09:34:43;;;;;;;10.52;9.50;;;;;;;28.06;42.81;101859.03;5049299;28;20099;-77
2023/09/27 09:37:28;;;;;;;14.15;9.77;;;;;;;28.10;42.43;101868.44;5049384;28;20123;-77
2023/09/27 09:40:16;;;;;;;14.18;11.85;;;;;;;25.34;49.69;101871.53;5049159;28;20021;-77
2023/09/27 09:42:42;;;;;;;10.65;9.55;;;;;;;25.72;47.81;101864.72;5049955;28;20087;-78
2023/09/27 09:45:12;;;;;;;12.90;11.52;;;;;;;25.76;48.21;101859.50;5048791;28;20037;-77
2023/09/27 09:47:38;;;;;;;13.93;10.32;;;;;;;25.95;47.71;101858.91;5049160;28;20500;-77
2023/09/27 09:50:06;;;;;;;13.43;12.13;;;;;;;25.08;49.69;101863.19;5034823;28;20033;-77
2023/09/27 09:52:32;;;;;;;13.43;12.07;;;;;;;24.28;51.75;101858.66;5048519;28;20542;-77
2023/09/27 09:54:58;;;;;;;14.30;12.63;;;;;;;24.09;53.17;101856.38;5049386;28;20095;-77
2023/09/27 09:57:35;;;;;;;14.95;13.40;;;;;;;24.25;53.54;101849.03;5046719;28;20040;-78
2023/09/27 10:00:12;;;;;;;17.83;14.80;;;;;;;23.87;54.31;101853.66;5043912;28;20033;-78
2023/09/27 10:02:41;;;;;;;16.05;14.05;;;;;;;24.82;50.87;101861.19;5050399;28;20036;-77
2023/09/27 10:05:07;;;;;;;14.38;12.98;;;;;;;24.93;50.80;101864.00;5052159;28;20025;-77
2023/09/27 10:07:34;;;;;;;13.90;12.10;;;;;;;25.15;50.00;101855.50;5051098;28;20388;-78
2023/09/27 10:09:59;;;;;;;13.93;12.50;;;;;;;25.48;48.97;101858.91;5047264;28;20029;-78
2023/09/27 10:12:26;;;;;;;13.73;12.32;;;;;;;24.82;50.56;101850.16;5042306;28;20381;-77
2023/09/27 10:14:51;;;;;;;13.20;11.50;;;;;;;25.01;49.01;101846.13;5053226;28;20029;-78
2023/09/27 10:17:21;;;;;;;13.10;11.25;;;;;;;25.19;49.35;101844.78;5053105;28;20087;-78
2023/09/27 10:20:28;;;;;;;14.07;12.55;;;;;;;25.09;50.13;101842.81;5053093;28;20055;-78
2023/09/27 10:22:54;;;;;;;13.07;10.13;;;;;;;26.33;45.72;101835.44;5044522;28;20539;-78
2023/09/27 10:25:32;;;;;;;9.18;8.23;;;;;;;29.12;38.52;101832.34;5040377;28;20037;-78
2023/09/27 10:28:07;;;;;;;12.13;9.60;;;;;;;28.29;40.35;101825.03;5049880;28;20036;-78
2023/09/27 10:30:41;;;;;;;11.90;10.60;;;;;;;26.08;45.01;101829.94;5052383;28;20057;-78
2023/09/27 10:33:15;;;;;;;13.27;9.43;;;;;;;26.58;43.68;101824.59;5052113;28;20033;-78
2023/09/27 10:35:42;;;;;;;13.45;11.07;;;;;;;26.23;44.91;101818.06;5043799;28;20124;-78
2023/09/27 10:38:10;;;;;;;13.60;11.85;;;;;;;24.97;48.45;101796.25;5052202;28;20021;-78
2023/09/27 10:40:45;;;;;;;14.60;12.40;;;;;;;24.55;50.04;101795.22;5042414;28;20049;-77
2023/09/27 10:43:30;;;;;;;;;;;;;;;24.09;51.70;101795.84;5051439;28;20029;-77
2023/09/27 10:45:56;;;;;;;14.48;12.75;;;;;;;23.80;52.95;101781.59;5045301;28;20295;-78
2023/09/27 10:48:24;;;;;;;14.52;12.52;;;;;;;23.67;52.04;101783.69;5049949;28;20033;-77
2023/09/27 10:50:56;;;;;;;17.00;13.48;;;;;;;24.22;51.02;101775.25;5040798;28;20112;-77
2023/09/27 10:53:22;;;;;;;15.00;12.40;;;;;;;24.79;50.92;101772.78;5047143;28;20021;-78
2023/09/27 10:55:47;;;;;;;14.93;12.52;;;;;;;25.25;49.17;101772.03;5050149;28;20401;-78
2023/09/27 10:58:19;;;;;;;14.50;12.93;;;;;;;25.34;48.68;101764.06;5049895;28;20025;-78
2023/09/27 11:00:54;;;;;;;13.75;12.35;;;;;;;25.19;48.69;101764.84;5042376;28;20476;-78
2023/09/27 11:03:19;;;;;;;13.05;11.13;;;;;;;25.26;47.94;101751.66;5050372;28;20033;-77
2023/09/27 11:05:45;;;;;;;12.77;11.10;;;;;;;26.16;46.14;101764.00;5051087;28;20083;-78
2023/09/27 11:08:10;;;;;;;13.27;11.65;;;;;;;25.13;48.66;101750.25;5050685;28;20041;-78